createdAt,value
2022-12-08T00:02:03.535Z,14.53
2022-12-08T00:04:52.347Z,13.57
2022-12-08T00:07:38.224Z,12.93
2022-12-08T00:10:25.143Z,13.43
2022-12-08T00:12:55.613Z,13.57
2022-12-08T00:15:24.064Z,14.90
2022-12-08T00:17:53.768Z,14.13
2022-12-08T00:20:22.162Z,12.83
2022-12-08T00:22:50.617Z,12.93
2022-12-08T00:25:19.110Z,14.07
2022-12-08T00:27:47.582Z,12.63
2022-12-08T00:30:15.999Z,12.40
2022-12-08T00:32:44.419Z,13.70
2022-12-08T00:35:14.159Z,13.97
2022-12-08T00:37:42.604Z,14.00
2022-12-08T00:40:11.298Z,13.93
2022-12-08T00:42:39.697Z,13.57
2022-12-08T00:45:08.698Z,14.20
2022-12-08T00:47:37.110Z,14.53
2022-12-08T00:50:05.991Z,14.57
2022-12-08T00:52:36.026Z,14.67
2022-12-08T00:55:04.935Z,15.67
2022-12-08T00:57:33.904Z,15.33
2022-12-08T01:00:02.638Z,15.43
2022-12-08T01:02:33.290Z,15.43
2022-12-08T01:05:01.732Z,14.83
2022-12-08T01:07:30.138Z,15.30
2022-12-08T01:09:59.908Z,15.67
2022-12-08T01:12:30.437Z,14.10
2022-12-08T01:15:02.311Z,14.07
2022-12-08T01:17:31.302Z,13.80
2022-12-08T01:19:59.640Z,14.63
2022-12-08T01:22:28.099Z,13.20
2022-12-08T01:24:56.451Z,13.47
2022-12-08T01:27:26.214Z,13.43
2022-12-08T01:29:54.563Z,14.63
2022-12-08T01:32:22.952Z,13.60
2022-12-08T01:34:51.295Z,13.87
2022-12-08T01:37:19.732Z,14.50
2022-12-08T01:39:48.073Z,13.63
2022-12-08T01:42:22.132Z,14.40
2022-12-08T01:45:02.702Z,13.67
2022-12-08T01:47:34.995Z,12.50
2022-12-08T01:50:03.963Z,12.30
2022-12-08T01:52:34.874Z,12.10
2022-12-08T01:55:04.681Z,12.63
2022-12-08T01:57:36.543Z,12.63
2022-12-08T02:00:08.033Z,13.67
2022-12-08T02:02:41.380Z,13.73
2022-12-08T02:05:10.635Z,12.93
2022-12-08T02:07:39.609Z,13.43
2022-12-08T02:10:08.530Z,14.77
2022-12-08T02:12:36.940Z,13.10
2022-12-08T02:15:07.491Z,13.77
2022-12-08T02:17:40.379Z,13.73
2022-12-08T02:20:18.277Z,13.67
2022-12-08T02:22:53.801Z,13.70
2022-12-08T02:25:25.844Z,12.90
2022-12-08T02:28:01.613Z,13.40
2022-12-08T02:30:37.416Z,13.83
2022-12-08T02:33:24.541Z,14.03
2022-12-08T02:35:58.514Z,14.10
2022-12-08T02:38:35.038Z,15.30
2022-12-08T02:41:08.360Z,15.27
2022-12-08T02:43:39.524Z,13.23
2022-12-08T02:46:10.797Z,12.73
2022-12-08T02:48:39.380Z,13.37
2022-12-08T02:51:09.173Z,13.00
2022-12-08T02:53:38.046Z,12.27
2022-12-08T02:56:14.170Z,13.37
2022-12-08T02:58:56.620Z,13.03
2022-12-08T03:01:40.338Z,13.13
2022-12-08T03:04:11.911Z,13.37
2022-12-08T03:06:44.478Z,13.53
2022-12-08T03:09:21.808Z,13.47
2022-12-08T03:11:52.518Z,13.40
2022-12-08T03:14:21.485Z,13.93
2022-12-08T03:16:51.927Z,14.77
2022-12-08T03:19:21.205Z,14.63
2022-12-08T03:21:52.796Z,14.63
2022-12-08T03:24:22.315Z,16.50
2022-12-08T03:26:52.720Z,16.53
2022-12-08T03:29:21.317Z,17.00
2022-12-08T03:31:55.839Z,16.90
2022-12-08T03:34:25.740Z,17.17
2022-12-08T03:36:55.839Z,18.17
2022-12-08T03:39:24.285Z,16.70
2022-12-08T03:41:52.697Z,16.93
2022-12-08T03:44:21.406Z,16.57
2022-12-08T03:46:49.782Z,16.37
2022-12-08T03:49:18.212Z,14.30
2022-12-08T03:51:46.603Z,15.23
2022-12-08T03:54:16.434Z,14.83
2022-12-08T03:56:44.832Z,14.57
2022-12-08T03:59:13.300Z,15.63
2022-12-08T04:01:41.707Z,14.37
2022-12-08T04:04:10.258Z,13.97
2022-12-08T04:06:38.574Z,13.40
2022-12-08T04:09:06.992Z,13.57
2022-12-08T04:11:36.781Z,13.20
2022-12-08T04:14:05.216Z,14.50
2022-12-08T04:16:33.771Z,14.50
2022-12-08T04:19:02.248Z,14.33
2022-12-08T04:21:30.635Z,12.80
2022-12-08T04:24:01.289Z,49.40
2022-12-08T04:26:30.152Z,15.17
2022-12-08T04:28:59.965Z,14.63
2022-12-08T04:31:28.332Z,15.67
2022-12-08T04:33:56.818Z,15.17
2022-12-08T04:36:25.206Z,14.50
2022-12-08T04:38:54.008Z,13.40
2022-12-08T04:41:22.455Z,13.37
2022-12-08T04:43:50.953Z,14.43
2022-12-08T04:46:20.759Z,14.13
2022-12-08T04:48:49.324Z,12.90
2022-12-08T04:51:18.138Z,12.83
2022-12-08T04:53:47.281Z,15.37
2022-12-08T04:56:16.260Z,14.57
2022-12-08T04:58:44.805Z,14.33
2022-12-08T05:01:13.414Z,13.93
2022-12-08T05:03:43.329Z,13.17
2022-12-08T05:06:12.795Z,12.87
2022-12-08T05:08:41.484Z,14.33
2022-12-08T05:11:10.882Z,11.27
2022-12-08T05:13:39.290Z,12.70
2022-12-08T05:16:08.397Z,12.07
2022-12-08T05:18:37.173Z,12.27
2022-12-08T05:21:07.645Z,12.20
2022-12-08T05:23:36.184Z,12.67
2022-12-08T05:26:04.574Z,12.47
2022-12-08T05:28:41.409Z,12.10
2022-12-08T05:31:10.555Z,11.93
2022-12-08T05:33:39.085Z,11.77
2022-12-08T05:36:09.135Z,10.80
2022-12-08T05:38:37.572Z,11.57
2022-12-08T05:41:06.179Z,11.47
2022-12-08T05:43:34.595Z,11.40
2022-12-08T05:46:03.056Z,11.60
2022-12-08T05:48:31.539Z,11.43
2022-12-08T05:50:59.910Z,11.07
2022-12-08T05:53:29.759Z,10.93
2022-12-08T05:55:58.195Z,10.70
2022-12-08T05:58:26.603Z,10.20
2022-12-08T06:00:54.992Z,10.47
2022-12-08T06:03:23.446Z,10.40
2022-12-08T06:05:51.849Z,10.20
2022-12-08T06:08:20.546Z,11.80
2022-12-08T06:10:50.341Z,10.97
2022-12-08T06:13:18.830Z,10.93
2022-12-08T06:15:47.247Z,10.27
2022-12-08T06:18:15.615Z,8.80
2022-12-08T06:20:43.982Z,9.00
2022-12-08T06:23:12.364Z,8.50
2022-12-08T06:25:40.804Z,9.00
2022-12-08T06:28:10.548Z,8.53
2022-12-08T06:30:39.556Z,8.50
2022-12-08T06:33:07.918Z,8.97
2022-12-08T06:35:36.328Z,9.77
2022-12-08T06:38:04.743Z,10.00
2022-12-08T06:40:33.182Z,8.27
2022-12-08T06:43:01.563Z,8.63
2022-12-08T06:45:31.394Z,8.80
2022-12-08T06:47:59.773Z,8.10
2022-12-08T06:50:28.651Z,9.10
2022-12-08T06:53:04.792Z,8.77
2022-12-08T06:58:22.599Z,9.53
2022-12-08T07:00:52.484Z,9.07
2022-12-08T07:03:20.955Z,12.27
2022-12-08T07:05:49.403Z,8.80
2022-12-08T07:08:17.853Z,9.40
2022-12-08T07:10:46.467Z,8.97
2022-12-08T07:13:14.860Z,8.70
2022-12-08T07:15:43.224Z,9.47
2022-12-08T07:18:12.955Z,8.53
2022-12-08T07:20:41.441Z,8.50
2022-12-08T07:23:09.796Z,9.30
2022-12-08T07:25:38.222Z,9.43
2022-12-08T07:28:10.689Z,8.87
2022-12-08T07:30:39.376Z,9.47
2022-12-08T07:33:08.011Z,9.50
2022-12-08T07:35:37.770Z,10.10
2022-12-08T07:38:06.118Z,9.47
2022-12-08T07:40:34.636Z,9.37
2022-12-08T07:43:03.424Z,8.63
2022-12-08T07:45:32.066Z,9.47
2022-12-08T07:48:00.913Z,9.50
2022-12-08T07:50:29.339Z,9.67
2022-12-08T07:52:59.119Z,9.40
2022-12-08T07:55:27.523Z,10.00
2022-12-08T07:57:55.954Z,11.03
2022-12-08T08:00:24.767Z,9.80
2022-12-08T08:02:54.499Z,10.60
2022-12-08T08:05:23.966Z,10.90
2022-12-08T08:07:52.367Z,10.20
2022-12-08T08:10:22.231Z,10.60
2022-12-08T08:12:51.725Z,9.93
2022-12-08T08:15:21.261Z,10.07
2022-12-08T08:17:51.708Z,11.13
2022-12-08T08:20:20.608Z,10.27
2022-12-08T08:22:49.222Z,11.40
2022-12-08T08:25:17.739Z,12.17
2022-12-08T08:27:48.265Z,12.37
2022-12-08T08:30:20.755Z,12.13
2022-12-08T08:32:49.593Z,12.83
2022-12-08T08:35:18.157Z,12.23
2022-12-08T08:37:49.187Z,12.00
2022-12-08T08:40:18.024Z,12.43
2022-12-08T08:42:47.784Z,13.47
2022-12-08T08:45:16.262Z,12.37
2022-12-08T08:47:44.680Z,13.07
2022-12-08T08:50:13.160Z,13.33
2022-12-08T08:52:41.547Z,12.73
2022-12-08T08:55:10.212Z,13.33
2022-12-08T08:57:38.612Z,13.50
2022-12-08T09:00:10.141Z,13.37
2022-12-08T09:02:38.805Z,12.60
2022-12-08T09:05:08.032Z,12.53
2022-12-08T09:07:36.590Z,13.10
2022-12-08T09:10:05.912Z,12.63
2022-12-08T09:12:34.636Z,13.23
2022-12-08T09:15:03.011Z,13.07
2022-12-08T09:17:32.762Z,13.33
2022-12-08T09:20:01.343Z,14.40
2022-12-08T09:22:29.950Z,13.20
2022-12-08T09:24:58.335Z,13.07
2022-12-08T09:27:26.789Z,14.25
2022-12-08T09:29:55.195Z,14.13
2022-12-08T09:32:23.611Z,15.48
2022-12-08T09:34:54.229Z,12.25
2022-12-08T09:37:22.662Z,13.50
2022-12-08T09:39:51.046Z,13.37
2022-12-08T09:42:22.348Z,13.20
2022-12-08T09:44:55.260Z,13.30
2022-12-08T09:47:26.713Z,13.43
2022-12-08T09:50:02.264Z,14.77
2022-12-08T09:52:34.047Z,16.20
2022-12-08T09:55:05.008Z,17.53
2022-12-08T09:57:33.453Z,14.10
2022-12-08T10:00:03.450Z,14.43
2022-12-08T10:02:32.320Z,12.87
2022-12-08T10:05:02.159Z,13.38
2022-12-08T10:07:47.103Z,14.60
2022-12-08T10:10:23.064Z,15.50
2022-12-08T10:12:55.919Z,16.93
2022-12-08T10:15:34.620Z,19.67
2022-12-08T10:18:04.285Z,19.03
2022-12-08T10:20:37.830Z,20.43
2022-12-08T10:23:09.682Z,20.03
2022-12-08T10:25:39.815Z,19.43
2022-12-08T10:28:08.244Z,19.97
2022-12-08T10:30:36.666Z,19.85
2022-12-08T10:33:05.516Z,18.75
2022-12-08T10:35:46.265Z,17.17
2022-12-08T10:38:22.606Z,17.73
2022-12-08T10:40:52.486Z,16.70
2022-12-08T10:43:23.167Z,14.27
2022-12-08T10:45:51.663Z,14.73
2022-12-08T10:48:21.246Z,13.70
2022-12-08T10:50:55.227Z,14.13
2022-12-08T10:53:24.748Z,11.90
2022-12-08T10:55:53.846Z,12.63
2022-12-08T10:58:26.191Z,10.35
2022-12-08T11:00:56.025Z,9.63
2022-12-08T11:03:27.044Z,11.90
2022-12-08T11:06:00.756Z,10.30
2022-12-08T11:08:32.593Z,9.98
2022-12-08T11:11:01.103Z,9.48
2022-12-08T11:13:30.033Z,10.45
2022-12-08T11:15:58.704Z,8.88
2022-12-08T11:18:29.615Z,8.43
2022-12-08T11:21:00.995Z,8.10
2022-12-08T11:23:30.055Z,7.82
2022-12-08T11:26:00.723Z,7.82
2022-12-08T11:28:29.129Z,8.05
2022-12-08T11:31:00.110Z,8.57
2022-12-08T11:33:29.426Z,7.88
2022-12-08T11:36:02.230Z,7.90
2022-12-08T11:38:31.156Z,8.25
2022-12-08T11:41:02.749Z,7.43
2022-12-08T11:43:38.049Z,8.05
2022-12-08T11:46:14.501Z,8.45
2022-12-08T11:48:44.914Z,8.52
2022-12-08T11:51:17.128Z,8.63
2022-12-08T11:53:49.244Z,8.23
2022-12-08T11:56:20.791Z,7.63
2022-12-08T11:58:51.591Z,7.80
2022-12-08T12:01:22.067Z,7.20
2022-12-08T12:03:54.330Z,6.75
2022-12-08T12:06:54.281Z,7.40
2022-12-08T12:09:24.201Z,7.25
2022-12-08T12:12:14.327Z,7.05
2022-12-08T12:14:53.301Z,7.60
2022-12-08T12:17:28.137Z,6.90
2022-12-08T12:19:57.774Z,7.10
2022-12-08T12:22:31.212Z,6.97
2022-12-08T12:24:59.642Z,6.88
2022-12-08T12:27:29.853Z,6.45
2022-12-08T12:29:59.760Z,6.30
2022-12-08T12:32:29.051Z,6.70
2022-12-08T12:34:58.908Z,6.25
2022-12-08T12:37:37.749Z,6.05
2022-12-08T12:40:08.429Z,5.00
2022-12-08T12:42:38.847Z,5.57
2022-12-08T12:45:25.332Z,5.25
2022-12-08T12:47:56.816Z,5.90
2022-12-08T12:50:44.401Z,6.28
2022-12-08T12:53:27.669Z,5.85
2022-12-08T12:55:57.950Z,5.45
2022-12-08T12:58:37.445Z,6.03
2022-12-08T13:01:26.623Z,4.82
2022-12-08T13:04:04.833Z,5.03
2022-12-08T13:06:35.262Z,5.32
2022-12-08T13:09:03.614Z,5.38
2022-12-08T13:11:48.001Z,5.63
2022-12-08T13:14:28.076Z,5.88
2022-12-08T13:16:57.934Z,6.05
2022-12-08T13:19:26.621Z,5.10
2022-12-08T13:21:55.067Z,5.03
2022-12-08T13:24:32.978Z,4.90
2022-12-08T13:27:31.364Z,4.53
2022-12-08T13:30:18.142Z,4.03
2022-12-08T13:33:17.791Z,4.82
2022-12-08T13:35:49.391Z,4.63
2022-12-08T13:38:19.615Z,5.00
2022-12-08T13:40:48.567Z,5.03
2022-12-08T13:43:19.596Z,5.22
2022-12-08T13:46:52.541Z,5.05
2022-12-08T13:55:19.678Z,5.30
2022-12-08T13:57:24.052Z,5.20
2022-12-08T13:59:52.500Z,3.30
2022-12-08T14:02:26.080Z,3.30
2022-12-08T14:07:45.561Z,2.92
2022-12-08T14:10:18.124Z,3.28
2022-12-08T14:12:48.819Z,3.25
2022-12-08T14:15:17.778Z,3.78
2022-12-08T14:17:52.681Z,3.70
2022-12-08T14:20:25.387Z,3.83
2022-12-08T14:22:54.245Z,4.03
2022-12-08T14:25:23.288Z,3.30
2022-12-08T14:27:52.026Z,3.75
2022-12-08T14:30:22.324Z,3.92
2022-12-08T14:32:51.307Z,3.30
2022-12-08T14:35:26.391Z,3.80
2022-12-08T14:37:56.448Z,3.40
2022-12-08T14:40:28.662Z,3.30
2022-12-08T14:43:07.863Z,3.90
2022-12-08T14:45:36.238Z,3.63
2022-12-08T14:48:19.789Z,3.55
2022-12-08T14:50:57.919Z,3.92
2022-12-08T14:53:26.802Z,3.77
2022-12-08T14:55:55.304Z,3.70
2022-12-08T14:58:24.692Z,4.13
2022-12-08T15:00:54.603Z,4.53
2022-12-08T15:03:24.177Z,4.60
2022-12-08T15:05:55.022Z,4.07
2022-12-08T15:08:23.692Z,3.93
2022-12-08T15:11:06.893Z,4.30
2022-12-08T15:13:35.300Z,4.10
2022-12-08T15:16:04.329Z,3.40
2022-12-08T15:18:37.035Z,3.60
2022-12-08T15:21:08.979Z,4.20
2022-12-08T15:23:42.563Z,3.57
2022-12-08T15:26:10.950Z,4.00
2022-12-08T15:28:39.393Z,4.03
2022-12-08T15:31:07.964Z,5.13
2022-12-08T15:33:37.284Z,4.80
2022-12-08T15:36:07.306Z,4.60
2022-12-08T15:38:35.787Z,4.77
2022-12-08T15:41:04.706Z,4.83
2022-12-08T15:43:33.657Z,5.27
2022-12-08T15:46:02.100Z,5.17
2022-12-08T15:48:31.402Z,5.60
2022-12-08T15:50:59.824Z,4.83
2022-12-08T15:53:29.639Z,5.53
2022-12-08T15:56:27.896Z,4.77
2022-12-08T15:58:55.573Z,4.57
2022-12-08T16:01:24.820Z,5.03
2022-12-08T16:07:20.104Z,4.47
2022-12-08T16:09:34.166Z,4.15
2022-12-08T16:12:20.411Z,4.63
2022-12-08T16:17:38.154Z,3.77
2022-12-08T16:20:07.844Z,4.23
2022-12-08T16:22:56.841Z,4.03
2022-12-08T16:25:27.343Z,3.73
2022-12-08T16:28:01.729Z,4.82
2022-12-08T16:30:34.171Z,4.80
2022-12-08T16:33:02.570Z,4.07
2022-12-08T16:35:30.943Z,4.43
2022-12-08T16:37:59.320Z,4.13
2022-12-08T16:40:29.147Z,4.60
2022-12-08T16:42:57.359Z,4.63
2022-12-08T16:45:26.965Z,4.40
2022-12-08T16:47:56.288Z,5.80
2022-12-08T16:50:25.455Z,5.03
2022-12-08T16:52:57.805Z,4.40
2022-12-08T16:55:26.166Z,4.40
2022-12-08T16:57:56.144Z,4.70
2022-12-08T17:00:25.593Z,5.37
2022-12-08T17:02:54.614Z,5.03
2022-12-08T17:05:24.123Z,5.10
2022-12-08T17:07:53.509Z,5.40
2022-12-08T17:10:23.089Z,5.37
2022-12-08T17:12:51.972Z,5.17
2022-12-08T17:15:23.380Z,5.60
2022-12-08T17:17:51.759Z,5.20
2022-12-08T17:20:21.445Z,5.80
2022-12-08T17:22:49.862Z,6.10
2022-12-08T17:25:18.278Z,8.33
2022-12-08T17:27:46.629Z,7.33
2022-12-08T17:30:17.583Z,7.27
2022-12-08T17:32:47.363Z,6.40
2022-12-08T17:35:15.815Z,6.80
2022-12-08T17:37:44.966Z,6.73
2022-12-08T17:40:13.600Z,6.63
2022-12-08T17:42:42.418Z,6.70
2022-12-08T17:45:11.415Z,6.57
2022-12-08T17:47:39.859Z,6.27
2022-12-08T17:50:10.466Z,6.23
2022-12-08T17:52:39.416Z,6.23
2022-12-08T17:55:08.369Z,6.63
2022-12-08T17:57:36.708Z,6.33
2022-12-08T18:00:06.134Z,6.43
2022-12-08T18:02:37.754Z,6.97
2022-12-08T18:05:06.769Z,6.47
2022-12-08T18:07:36.484Z,6.57
2022-12-08T18:10:05.736Z,6.97
2022-12-08T18:12:34.372Z,6.50
2022-12-08T18:15:03.397Z,6.60
2022-12-08T18:17:31.823Z,6.27
2022-12-08T18:20:00.236Z,6.80
2022-12-08T18:22:28.650Z,7.13
2022-12-08T18:24:58.422Z,6.13
2022-12-08T18:27:26.796Z,6.60
2022-12-08T18:29:55.207Z,6.33
2022-12-08T18:32:23.790Z,6.70
2022-12-08T18:34:52.246Z,6.50
2022-12-08T18:37:21.057Z,6.67
2022-12-08T18:39:50.824Z,5.80
2022-12-08T18:42:23.733Z,5.97
2022-12-08T18:44:52.754Z,6.10
2022-12-08T18:47:21.259Z,6.17
2022-12-08T18:49:49.832Z,5.70
2022-12-08T18:52:24.190Z,6.33
2022-12-08T18:55:06.369Z,6.17
2022-12-08T18:57:38.585Z,6.27
2022-12-08T19:00:08.420Z,6.30
2022-12-08T19:02:37.334Z,7.03
2022-12-08T19:05:06.207Z,7.87
2022-12-08T19:07:34.660Z,6.53
2022-12-08T19:10:03.544Z,7.27
2022-12-08T19:12:32.283Z,6.90
2022-12-08T19:15:02.128Z,7.80
2022-12-08T19:17:30.789Z,8.13
2022-12-08T19:19:59.297Z,9.43
2022-12-08T19:22:27.702Z,9.07
2022-12-08T19:24:56.104Z,9.63
2022-12-08T19:27:24.719Z,8.07
2022-12-08T19:29:53.128Z,9.87
2022-12-08T19:32:22.924Z,10.67
2022-12-08T19:34:51.289Z,11.00
2022-12-08T19:37:19.687Z,10.30
2022-12-08T19:40:05.884Z,9.93
2022-12-08T19:42:52.141Z,9.83
2022-12-08T19:45:22.188Z,10.33
2022-12-08T19:47:52.012Z,9.80
2022-12-08T19:50:39.039Z,10.63
2022-12-08T19:53:08.363Z,12.20
2022-12-08T19:55:37.062Z,9.10
2022-12-08T19:58:06.161Z,10.47
2022-12-08T20:00:34.871Z,9.67
2022-12-08T20:03:05.794Z,9.33
2022-12-08T20:05:35.275Z,10.60
2022-12-08T20:08:04.089Z,10.30
2022-12-08T20:10:34.365Z,9.47
2022-12-08T20:13:26.259Z,10.37
2022-12-08T20:15:54.742Z,10.57
2022-12-08T20:18:25.378Z,10.40
2022-12-08T20:20:53.835Z,10.97
2022-12-08T20:23:22.321Z,10.63
2022-12-08T20:25:50.837Z,9.80
2022-12-08T20:28:20.088Z,11.20
2022-12-08T20:30:49.174Z,11.13
2022-12-08T20:33:18.418Z,10.77
2022-12-08T20:35:48.403Z,10.67
2022-12-08T20:38:16.817Z,10.57
2022-12-08T20:40:47.106Z,10.43
2022-12-08T20:43:15.602Z,10.87
2022-12-08T20:45:44.036Z,10.77
2022-12-08T20:48:12.469Z,11.33
2022-12-08T20:50:40.957Z,11.33
2022-12-08T20:53:10.839Z,10.97
2022-12-08T20:55:42.716Z,11.73
2022-12-08T20:58:12.250Z,12.40
2022-12-08T21:00:40.856Z,11.33
2022-12-08T21:03:09.377Z,9.97
2022-12-08T21:05:38.839Z,10.37
2022-12-08T21:08:07.650Z,10.03
2022-12-08T21:10:43.479Z,10.30
2022-12-08T21:13:12.359Z,11.03
2022-12-08T21:15:41.486Z,11.10
2022-12-08T21:18:10.185Z,10.70
2022-12-08T21:20:41.692Z,11.00
2022-12-08T21:23:10.206Z,13.77
2022-12-08T21:25:42.698Z,11.70
2022-12-08T21:28:11.183Z,10.30
2022-12-08T21:30:40.454Z,10.07
2022-12-08T21:33:09.101Z,10.30
2022-12-08T21:35:38.582Z,9.93
2022-12-08T21:38:07.392Z,9.60
2022-12-08T21:40:36.325Z,9.43
2022-12-08T21:43:06.112Z,9.50
2022-12-08T21:45:35.505Z,9.67
2022-12-08T21:48:11.015Z,10.10
2022-12-08T21:50:40.081Z,10.10
2022-12-08T21:53:08.685Z,10.27
2022-12-08T21:55:37.236Z,10.57
2022-12-08T21:58:07.223Z,10.40
2022-12-08T22:00:35.940Z,10.43
2022-12-08T22:03:04.914Z,10.57
2022-12-08T22:05:33.787Z,9.97
2022-12-08T22:08:02.596Z,10.37
2022-12-08T22:10:31.237Z,9.20
2022-12-08T22:12:59.607Z,9.33
2022-12-08T22:15:30.009Z,9.53
2022-12-08T22:17:58.811Z,9.53
2022-12-08T22:20:27.443Z,9.17
2022-12-08T22:22:56.040Z,9.27
2022-12-08T22:25:24.601Z,9.50
2022-12-08T22:27:53.145Z,10.07
2022-12-08T22:30:21.580Z,10.00
2022-12-08T22:32:51.349Z,10.37
2022-12-08T22:35:20.022Z,10.23
2022-12-08T22:37:49.424Z,10.47
2022-12-08T22:40:17.917Z,10.40
2022-12-08T22:42:46.454Z,10.37
2022-12-08T22:45:14.848Z,10.63
2022-12-08T22:47:43.375Z,11.10
2022-12-08T22:50:13.570Z,11.63
2022-12-08T22:52:42.105Z,10.50
2022-12-08T22:55:10.765Z,9.23
2022-12-08T22:57:39.383Z,10.83
2022-12-08T23:00:11.550Z,10.43
2022-12-08T23:02:40.685Z,11.13
2022-12-08T23:05:09.684Z,11.13
2022-12-08T23:07:40.298Z,11.13
2022-12-08T23:10:09.913Z,10.43
2022-12-08T23:12:38.972Z,10.43
2022-12-08T23:15:08.258Z,10.10
2022-12-08T23:17:36.753Z,11.60
2022-12-08T23:20:05.923Z,14.03
2022-12-08T23:22:34.736Z,14.40
2022-12-08T23:25:04.697Z,13.13
2022-12-08T23:27:33.544Z,11.63
2022-12-08T23:30:02.204Z,13.77
2022-12-08T23:32:31.264Z,14.00
2022-12-08T23:34:59.839Z,13.97
2022-12-08T23:37:29.314Z,13.27
2022-12-08T23:39:57.723Z,11.83
2022-12-08T23:42:27.513Z,11.93
2022-12-08T23:44:56.071Z,11.97
2022-12-08T23:47:24.606Z,10.43
2022-12-08T23:49:53.460Z,11.40
2022-12-08T23:52:21.941Z,11.10
2022-12-08T23:54:51.556Z,11.07
2022-12-08T23:57:20.047Z,11.60
2022-12-08T23:59:49.825Z,10.93
